KCIU/CIU METAR and TAF weather

Enter ICAO airport designator
Station Type Date Time Source
KCIU METAR 2018/01/19 22:56 UTC NOAA

KCIU 192256Z AUTO 22006KT 10SM BKN120 01/M01 A2949 RMK AO2 SLP012 T00111011 FZRANO PNO $


Station Type Date Time Source
KCIU Decoded METAR 2018/01/19 22:56 UTC NOAA

Sault Ste Marie, Chippewa County International Airport, MI, United States (KCIU) 46-15N 084-28W
Jan 19, 2018 - 05:56 PM EST / 2018.01.19 2256 UTC
Wind: from the SW (220 degrees) at 7 MPH (6 KT):0
Visibility: 10 mile(s):0
Sky conditions: mostly cloudy
Temperature: 34.0 F (1.1 C)
Windchill: 28 F (-2 C):1
Dew Point: 30.0 F (-1.1 C)
Relative Humidity: 85%
Pressure (altimeter): 29.49 in. Hg (998 hPa)
ob: KCIU 192256Z AUTO 22006KT 10SM BKN120 01/M01 A2949 RMK AO2 SLP012 T00111011 FZRANO PNO
cycle: 23

Station Type Date Time Source
KCIU TAF UTC NOAA

Error!


Example: see airport list